createdAt,value
2023-04-15T00:01:45.355Z,3.28
2023-04-15T00:04:12.850Z,4.00
2023-04-15T00:06:40.192Z,3.25
2023-04-15T00:09:07.166Z,3.35
2023-04-15T00:11:34.137Z,3.40
2023-04-15T00:14:01.381Z,3.28
2023-04-15T00:16:28.677Z,3.42
2023-04-15T00:18:55.680Z,3.65
2023-04-15T00:21:22.653Z,3.20
2023-04-15T00:23:52.827Z,3.13
2023-04-15T00:26:21.262Z,3.35
2023-04-15T00:28:50.598Z,2.92
2023-04-15T00:31:18.019Z,4.38
2023-04-15T00:33:46.272Z,3.30
2023-04-15T00:36:14.128Z,3.35
2023-04-15T00:38:41.440Z,3.45
2023-04-15T00:41:09.613Z,3.30
2023-04-15T00:43:36.880Z,3.67
2023-04-15T00:46:06.157Z,3.22
2023-04-15T00:48:33.526Z,3.78
2023-04-15T00:51:01.133Z,3.30
2023-04-15T00:53:28.811Z,3.30
2023-04-15T00:55:56.688Z,3.00
2023-04-15T00:58:24.706Z,2.33
2023-04-15T01:00:54.532Z,3.40
2023-04-15T01:03:21.993Z,3.40
2023-04-15T01:05:50.661Z,3.33
2023-04-15T01:08:17.896Z,2.88
2023-04-15T01:10:45.887Z,3.08
2023-04-15T01:13:13.226Z,3.00
2023-04-15T01:15:40.850Z,2.63
2023-04-15T01:18:08.751Z,3.38
2023-04-15T01:20:38.359Z,2.60
2023-04-15T01:23:06.717Z,2.50
2023-04-15T01:25:34.851Z,2.58
2023-04-15T01:28:02.333Z,3.42
2023-04-15T01:30:30.111Z,2.78
2023-04-15T01:32:57.433Z,3.03
2023-04-15T01:35:25.308Z,1.95
2023-04-15T01:37:52.952Z,1.75
2023-04-15T01:40:19.925Z,2.75
2023-04-15T01:42:47.393Z,2.78
2023-04-15T01:45:15.832Z,2.90
2023-04-15T01:47:44.024Z,2.75
2023-04-15T01:50:11.523Z,2.72
2023-04-15T01:52:38.936Z,2.60
2023-04-15T01:55:09.731Z,2.00
2023-04-15T01:57:37.298Z,2.97
2023-04-15T02:00:04.713Z,2.45
2023-04-15T02:02:40.911Z,2.80
2023-04-15T02:05:08.962Z,2.78
2023-04-15T02:07:38.108Z,3.53
2023-04-15T02:10:05.743Z,3.47
2023-04-15T02:12:35.483Z,3.22
2023-04-15T02:15:02.343Z,2.92
2023-04-15T02:17:29.647Z,3.40
2023-04-15T02:19:57.124Z,3.05
2023-04-15T02:22:25.111Z,2.92
2023-04-15T02:24:51.881Z,3.22
2023-04-15T02:27:19.150Z,2.95
2023-04-15T02:29:46.692Z,3.58
2023-04-15T02:32:14.513Z,2.42
2023-04-15T02:34:42.964Z,2.90
2023-04-15T02:37:12.161Z,2.85
2023-04-15T02:39:39.588Z,2.35
2023-04-15T02:42:06.643Z,2.60
2023-04-15T02:44:35.499Z,2.42
2023-04-15T02:47:06.793Z,2.70
2023-04-15T02:49:34.323Z,2.83
2023-04-15T02:52:01.835Z,3.05
2023-04-15T02:54:29.834Z,2.97
2023-04-15T02:56:58.026Z,2.80
2023-04-15T02:59:26.134Z,2.97
2023-04-15T03:01:53.230Z,2.35
2023-04-15T03:04:20.683Z,3.03
2023-04-15T03:06:47.930Z,3.58
2023-04-15T03:09:15.887Z,3.50
2023-04-15T03:11:43.916Z,2.97
2023-04-15T03:14:11.867Z,2.97
2023-04-15T03:16:43.883Z,3.33
2023-04-15T03:19:12.055Z,3.03
2023-04-15T03:21:42.273Z,2.75
2023-04-15T03:24:10.125Z,3.22
2023-04-15T03:26:37.884Z,3.47
2023-04-15T03:29:11.517Z,3.05
2023-04-15T03:31:40.171Z,3.25
2023-04-15T03:34:07.549Z,3.20
2023-04-15T03:36:35.224Z,2.90
2023-04-15T03:39:05.341Z,2.85
2023-04-15T03:41:33.093Z,3.72
2023-04-15T03:44:03.227Z,2.72
2023-04-15T03:46:30.418Z,3.75
2023-04-15T03:48:57.906Z,3.08
2023-04-15T03:51:25.165Z,3.90
2023-04-15T03:53:52.999Z,4.00
2023-04-15T03:56:21.252Z,2.95
2023-04-15T03:58:49.626Z,2.90
2023-04-15T04:01:17.011Z,3.88
2023-04-15T04:03:44.592Z,3.90
2023-04-15T04:06:12.824Z,3.55
2023-04-15T04:08:40.438Z,3.42
2023-04-15T04:11:08.047Z,3.22
2023-04-15T04:13:36.166Z,3.90
2023-04-15T04:16:04.975Z,3.92
2023-04-15T04:18:33.862Z,3.72
2023-04-15T04:21:01.475Z,3.20
2023-04-15T04:23:29.476Z,3.85
2023-04-15T04:25:57.210Z,3.33
2023-04-15T04:28:25.629Z,3.92
2023-04-15T04:30:53.752Z,3.65
2023-04-15T04:33:21.531Z,3.78
2023-04-15T04:35:49.202Z,3.47
2023-04-15T04:38:16.783Z,3.60
2023-04-15T04:40:44.847Z,3.17
2023-04-15T04:43:13.556Z,3.22
2023-04-15T04:45:41.405Z,4.18
2023-04-15T04:48:11.159Z,3.22
2023-04-15T04:50:40.072Z,2.85
2023-04-15T04:53:07.429Z,3.13
2023-04-15T04:55:37.585Z,4.07
2023-04-15T04:58:05.532Z,3.22
2023-04-15T05:00:33.279Z,3.47
2023-04-15T05:03:01.616Z,3.28
2023-04-15T05:05:29.738Z,3.00
2023-04-15T05:07:58.591Z,3.00
2023-04-15T05:10:27.246Z,2.90
2023-04-15T05:12:54.104Z,2.78
2023-04-15T05:15:21.114Z,3.13
2023-04-15T05:17:47.969Z,2.70
2023-04-15T05:20:15.999Z,2.63
2023-04-15T05:22:43.512Z,3.30
2023-04-15T05:25:10.663Z,3.08
2023-04-15T05:27:38.075Z,3.30
2023-04-15T05:30:07.467Z,2.35
2023-04-15T05:32:35.078Z,3.45
2023-04-15T05:35:02.465Z,3.42
2023-04-15T05:37:29.242Z,2.83
2023-04-15T05:39:57.288Z,2.90
2023-04-15T05:42:24.691Z,3.30
2023-04-15T05:44:52.287Z,2.85
2023-04-15T05:47:19.617Z,3.97
2023-04-15T05:49:47.101Z,3.60
2023-04-15T05:52:14.669Z,2.60
2023-04-15T05:54:42.128Z,3.47
2023-04-15T05:57:09.427Z,3.28
2023-04-15T05:59:36.987Z,3.03
2023-04-15T06:02:04.214Z,3.10
2023-04-15T06:04:32.988Z,3.10
2023-04-15T06:07:00.364Z,2.75
2023-04-15T06:09:29.180Z,3.03
2023-04-15T06:11:57.918Z,3.47
2023-04-15T06:14:25.148Z,3.22
2023-04-15T06:16:52.644Z,3.15
2023-04-15T06:19:20.675Z,3.63
2023-04-15T06:21:48.689Z,3.65
2023-04-15T06:24:16.022Z,2.70
2023-04-15T06:26:43.217Z,3.58
2023-04-15T06:29:10.495Z,5.00
2023-04-15T06:31:38.055Z,3.30
2023-04-15T06:34:05.780Z,3.30
2023-04-15T06:36:33.491Z,3.72
2023-04-15T06:39:01.931Z,3.28
2023-04-15T06:41:29.200Z,3.55
2023-04-15T06:43:56.551Z,5.53
2023-04-15T06:46:24.563Z,4.32
2023-04-15T06:48:52.822Z,4.18
2023-04-15T06:51:20.352Z,3.40
2023-04-15T06:53:47.535Z,4.00
2023-04-15T06:56:14.341Z,3.65
2023-04-15T06:58:41.370Z,3.15
2023-04-15T07:01:08.521Z,3.30
2023-04-15T07:03:36.148Z,2.90
2023-04-15T07:06:06.598Z,2.80
2023-04-15T07:08:34.563Z,3.28
2023-04-15T07:11:03.166Z,2.92
2023-04-15T07:13:32.466Z,2.95
2023-04-15T07:15:59.989Z,2.85
2023-04-15T07:18:28.990Z,3.28
2023-04-15T07:20:58.404Z,3.13
2023-04-15T07:23:25.546Z,2.90
2023-04-15T07:25:53.383Z,3.08
2023-04-15T07:28:20.975Z,2.47
2023-04-15T07:30:48.670Z,2.22
2023-04-15T07:33:16.571Z,2.78
2023-04-15T07:35:43.672Z,2.22
2023-04-15T07:38:13.119Z,2.90
2023-04-15T07:40:40.980Z,2.30
2023-04-15T07:43:09.062Z,3.05
2023-04-15T07:45:36.614Z,2.58
2023-04-15T07:48:04.260Z,2.50
2023-04-15T07:50:32.351Z,2.40
2023-04-15T07:53:00.872Z,2.08
2023-04-15T07:55:28.367Z,2.28
2023-04-15T07:57:55.591Z,2.17
2023-04-15T08:00:23.059Z,2.50
2023-04-15T08:02:50.678Z,2.65
2023-04-15T08:05:18.185Z,2.55
2023-04-15T08:07:45.745Z,1.60
2023-04-15T08:10:12.931Z,3.05
2023-04-15T08:12:40.457Z,2.08
2023-04-15T08:15:08.760Z,1.92
2023-04-15T08:17:36.263Z,1.95
2023-04-15T08:20:04.926Z,1.60
2023-04-15T08:22:31.881Z,1.67
2023-04-15T08:25:00.169Z,2.30
2023-04-15T08:27:27.765Z,1.92
2023-04-15T08:29:55.212Z,1.80
2023-04-15T08:32:22.826Z,1.80
2023-04-15T08:34:50.509Z,1.60
2023-04-15T08:37:18.114Z,1.58
2023-04-15T08:39:46.343Z,1.63
2023-04-15T08:42:18.759Z,1.55
2023-04-15T08:44:47.015Z,1.83
2023-04-15T08:47:15.154Z,2.15
2023-04-15T08:49:43.839Z,2.10
2023-04-15T08:52:12.674Z,1.55
2023-04-15T08:54:40.044Z,1.38
2023-04-15T08:57:07.403Z,1.88
2023-04-15T08:59:34.162Z,2.13
2023-04-15T09:02:01.407Z,1.48
2023-04-15T09:04:28.546Z,2.33
2023-04-15T09:06:55.466Z,1.92
2023-04-15T09:09:22.767Z,1.42
2023-04-15T09:11:51.459Z,1.70
2023-04-15T09:14:18.825Z,1.65
2023-04-15T09:16:58.850Z,1.77
2023-04-15T09:19:26.287Z,2.05
2023-04-15T09:21:59.153Z,2.00
2023-04-15T09:24:37.563Z,1.10
2023-04-15T09:27:04.911Z,1.85
2023-04-15T09:29:32.677Z,1.30
2023-04-15T09:32:16.650Z,1.40
2023-04-15T09:34:45.047Z,1.83
2023-04-15T09:37:28.614Z,2.10
2023-04-15T09:39:59.253Z,2.33
2023-04-15T09:42:27.347Z,2.38
2023-04-15T09:44:54.522Z,1.90
2023-04-15T09:47:32.589Z,1.90
2023-04-15T09:50:01.485Z,2.00
2023-04-15T09:52:29.210Z,2.25
2023-04-15T09:55:01.121Z,2.50
2023-04-15T09:57:39.176Z,1.88
2023-04-15T10:00:08.865Z,2.65
2023-04-15T10:02:37.189Z,2.70
2023-04-15T10:05:05.107Z,2.70
2023-04-15T10:07:33.560Z,2.70
2023-04-15T10:10:02.864Z,2.38
2023-04-15T10:12:31.352Z,2.63
2023-04-15T10:15:07.546Z,3.00
2023-04-15T10:17:37.317Z,2.80
2023-04-15T10:20:05.621Z,3.20
2023-04-15T10:22:33.408Z,2.90
2023-04-15T10:25:01.360Z,2.45
2023-04-15T10:27:29.337Z,2.67
2023-04-15T10:29:57.614Z,3.85
2023-04-15T10:32:26.605Z,3.38
2023-04-15T10:34:55.004Z,3.75
2023-04-15T10:37:33.963Z,3.40
2023-04-15T10:40:01.536Z,3.80
2023-04-15T10:42:38.322Z,3.60
2023-04-15T10:45:17.595Z,3.70
2023-04-15T10:47:45.004Z,2.85
2023-04-15T10:50:14.896Z,3.88
2023-04-15T10:52:42.689Z,3.92
2023-04-15T10:55:18.078Z,4.78
2023-04-15T10:57:46.176Z,4.95
2023-04-15T11:00:15.966Z,4.45
2023-04-15T11:02:53.018Z,4.25
2023-04-15T11:05:22.085Z,3.80
2023-04-15T11:07:53.990Z,5.65
2023-04-15T11:10:21.568Z,4.77
2023-04-15T11:12:52.601Z,4.53
2023-04-15T11:15:33.202Z,3.85
2023-04-15T11:18:10.367Z,6.38
2023-04-15T11:20:39.257Z,5.70
2023-04-15T11:23:13.855Z,7.20
2023-04-15T11:25:44.241Z,6.43
2023-04-15T11:28:13.153Z,5.15
2023-04-15T11:30:41.302Z,3.60
2023-04-15T11:33:10.351Z,5.13
2023-04-15T11:35:41.850Z,4.55
2023-04-15T11:38:16.835Z,5.25
2023-04-15T11:40:46.845Z,4.57
2023-04-15T11:43:17.293Z,3.50
2023-04-15T11:45:58.936Z,3.40
2023-04-15T11:48:34.098Z,3.25
2023-04-15T11:51:06.327Z,2.85
2023-04-15T11:53:52.664Z,2.80
2023-04-15T11:56:25.197Z,3.00
2023-04-15T11:58:53.864Z,3.03
2023-04-15T12:01:21.511Z,3.22
2023-04-15T12:03:50.313Z,3.10
2023-04-15T12:06:19.832Z,3.20
2023-04-15T12:09:02.031Z,3.00
2023-04-15T12:11:36.810Z,2.25
2023-04-15T12:14:05.702Z,3.15
2023-04-15T12:16:37.246Z,3.17
2023-04-15T12:19:18.001Z,3.72
2023-04-15T12:21:50.681Z,2.72
2023-04-15T12:24:22.655Z,3.15
2023-04-15T12:26:55.291Z,3.58
2023-04-15T12:31:59.358Z,3.67
2023-04-15T12:34:35.900Z,2.53
2023-04-15T12:37:05.749Z,2.97
2023-04-15T12:39:37.340Z,3.60
2023-04-15T12:42:06.192Z,3.17
2023-04-15T12:44:36.420Z,3.28
2023-04-15T12:47:04.072Z,3.10
2023-04-15T12:49:33.036Z,3.97
2023-04-15T12:52:02.208Z,3.22
2023-04-15T12:54:30.871Z,4.32
2023-04-15T12:56:59.698Z,3.63
2023-04-15T12:59:27.671Z,2.97
2023-04-15T13:01:55.381Z,3.17
2023-04-15T13:04:23.606Z,3.42
2023-04-15T13:06:50.968Z,3.17
2023-04-15T13:09:18.293Z,2.97
2023-04-15T13:11:45.665Z,3.20
2023-04-15T13:14:13.250Z,2.47
2023-04-15T13:16:41.850Z,1.90
2023-04-15T13:19:08.993Z,2.53
2023-04-15T13:21:36.642Z,2.70
2023-04-15T13:24:05.562Z,2.50
2023-04-15T13:26:33.025Z,2.15
2023-04-15T13:29:01.685Z,2.60
2023-04-15T13:31:29.510Z,3.15
2023-04-15T13:33:57.994Z,2.50
2023-04-15T13:36:26.512Z,2.45
2023-04-15T13:38:53.762Z,2.60
2023-04-15T13:41:21.437Z,2.03
2023-04-15T13:43:48.609Z,3.30
2023-04-15T13:46:16.061Z,3.47
2023-04-15T13:48:43.651Z,2.80
2023-04-15T13:51:11.154Z,3.10
2023-04-15T13:53:39.738Z,3.40
2023-04-15T13:56:10.478Z,2.70
2023-04-15T13:58:38.392Z,3.60
2023-04-15T14:01:07.435Z,2.35
2023-04-15T14:03:38.007Z,2.67
2023-04-15T14:06:06.778Z,3.60
2023-04-15T14:08:34.311Z,3.83
2023-04-15T14:11:01.775Z,2.80
2023-04-15T14:13:29.393Z,2.60
2023-04-15T14:15:57.413Z,3.25
2023-04-15T14:18:24.294Z,3.60
2023-04-15T14:20:52.056Z,2.85
2023-04-15T14:23:19.582Z,3.40
2023-04-15T14:25:48.394Z,3.38
2023-04-15T14:28:16.199Z,3.42
2023-04-15T14:30:43.758Z,3.33
2023-04-15T14:33:11.542Z,2.80
2023-04-15T14:35:39.304Z,3.33
2023-04-15T14:38:11.033Z,3.90
2023-04-15T14:40:38.538Z,2.60
2023-04-15T14:43:05.982Z,3.70
2023-04-15T14:45:34.080Z,4.05
2023-04-15T14:48:01.729Z,4.22
2023-04-15T14:50:29.350Z,3.60
2023-04-15T14:52:56.588Z,4.45
2023-04-15T14:55:23.631Z,4.03
2023-04-15T14:57:51.027Z,4.43
2023-04-15T15:00:18.090Z,4.72
2023-04-15T15:02:47.637Z,6.75
2023-04-15T15:05:14.888Z,6.50
2023-04-15T15:07:42.118Z,5.28
2023-04-15T15:10:09.652Z,3.60
2023-04-15T15:12:36.703Z,4.38
2023-04-15T15:15:12.383Z,3.95
2023-04-15T15:17:43.406Z,3.22
2023-04-15T15:20:11.387Z,3.25
2023-04-15T15:22:38.363Z,3.22
2023-04-15T15:25:05.843Z,3.72
2023-04-15T15:27:33.296Z,3.72
2023-04-15T15:30:00.867Z,4.95
2023-04-15T15:32:28.089Z,3.50
2023-04-15T15:34:55.587Z,3.53
2023-04-15T15:37:22.911Z,4.35
2023-04-15T15:39:50.996Z,3.97
2023-04-15T15:42:19.784Z,4.50
2023-04-15T15:44:46.780Z,3.83
2023-04-15T15:47:14.189Z,4.07
2023-04-15T15:49:41.828Z,3.95
2023-04-15T15:52:09.206Z,4.30
2023-04-15T15:54:38.049Z,3.88
2023-04-15T15:57:05.424Z,3.47
2023-04-15T15:59:33.510Z,4.25
2023-04-15T16:02:02.905Z,4.70
2023-04-15T16:04:30.011Z,4.45
2023-04-15T16:06:57.043Z,3.65
2023-04-15T16:09:24.477Z,3.92
2023-04-15T16:11:52.113Z,3.70
2023-04-15T16:14:20.186Z,4.53
2023-04-15T16:16:48.199Z,4.28
2023-04-15T16:19:15.312Z,4.00
2023-04-15T16:21:43.245Z,3.92
2023-04-15T16:24:10.677Z,4.07
2023-04-15T16:26:37.754Z,4.60
2023-04-15T16:29:05.381Z,4.03
2023-04-15T16:31:33.242Z,4.05
2023-04-15T16:34:00.556Z,4.07
2023-04-15T16:36:28.878Z,3.30
2023-04-15T16:38:56.028Z,4.65
2023-04-15T16:41:22.977Z,3.75
2023-04-15T16:43:50.510Z,5.38
2023-04-15T16:46:17.724Z,5.10
2023-04-15T16:48:44.992Z,5.00
2023-04-15T16:51:11.808Z,3.85
2023-04-15T16:53:39.081Z,4.45
2023-04-15T16:56:06.991Z,4.22
2023-04-15T16:58:34.756Z,5.07
2023-04-15T17:01:01.846Z,4.50
2023-04-15T17:03:29.403Z,4.68
2023-04-15T17:05:57.129Z,5.05
2023-04-15T17:08:24.308Z,4.78
2023-04-15T17:10:52.021Z,4.55
2023-04-15T17:13:19.184Z,4.88
2023-04-15T17:15:46.871Z,5.90
2023-04-15T17:18:14.292Z,5.38
2023-04-15T17:20:42.118Z,4.30
2023-04-15T17:23:09.757Z,4.80
2023-04-15T17:25:37.522Z,4.85
2023-04-15T17:28:04.312Z,3.72
2023-04-15T17:30:33.426Z,4.47
2023-04-15T17:33:01.767Z,4.38
2023-04-15T17:35:29.435Z,5.25
2023-04-15T17:37:56.732Z,4.18
2023-04-15T17:40:24.316Z,5.10
2023-04-15T17:42:51.435Z,4.82
2023-04-15T17:45:18.848Z,4.97
2023-04-15T17:47:46.586Z,5.47
2023-04-15T17:50:14.242Z,4.88
2023-04-15T17:52:41.716Z,4.45
2023-04-15T17:55:08.944Z,4.75
2023-04-15T17:57:36.390Z,4.50
2023-04-15T18:00:04.130Z,5.13
2023-04-15T18:02:39.603Z,4.80
2023-04-15T18:05:07.444Z,4.10
2023-04-15T18:07:35.150Z,5.25
2023-04-15T18:10:02.602Z,4.85
2023-04-15T18:12:29.707Z,3.88
2023-04-15T18:14:56.977Z,4.50
2023-04-15T18:17:24.370Z,4.38
2023-04-15T18:19:52.829Z,4.07
2023-04-15T18:22:20.359Z,4.15
2023-04-15T18:24:50.325Z,3.53
2023-04-15T18:27:18.431Z,4.10
2023-04-15T18:29:45.654Z,3.70
2023-04-15T18:32:13.084Z,3.97
2023-04-15T18:34:40.257Z,3.53
2023-04-15T18:37:07.753Z,3.17
2023-04-15T18:39:35.109Z,3.00
2023-04-15T18:42:02.098Z,3.88
2023-04-15T18:44:29.122Z,4.30
2023-04-15T18:46:56.266Z,3.15
2023-04-15T18:49:24.084Z,3.50
2023-04-15T18:51:52.015Z,3.92
2023-04-15T18:54:19.010Z,3.70
2023-04-15T18:56:45.936Z,3.10
2023-04-15T18:59:29.624Z,3.20
2023-04-15T19:01:58.738Z,3.05
2023-04-15T19:04:26.408Z,2.80
2023-04-15T19:06:54.091Z,3.55
2023-04-15T19:09:21.110Z,2.45
2023-04-15T19:11:49.343Z,2.95
2023-04-15T19:14:17.579Z,3.25
2023-04-15T19:16:44.973Z,3.28
2023-04-15T19:19:14.752Z,3.00
2023-04-15T19:21:43.097Z,3.53
2023-04-15T19:24:10.323Z,3.55
2023-04-15T19:26:37.850Z,2.97
2023-04-15T19:29:05.322Z,2.67
2023-04-15T19:31:33.350Z,3.70
2023-04-15T19:34:01.079Z,3.65
2023-04-15T19:36:28.709Z,3.42
2023-04-15T19:38:55.832Z,3.63
2023-04-15T19:41:23.272Z,3.17
2023-04-15T19:43:50.498Z,3.40
2023-04-15T19:46:17.956Z,3.33
2023-04-15T19:48:45.546Z,3.28
2023-04-15T19:51:13.555Z,3.35
2023-04-15T19:53:41.880Z,3.75
2023-04-15T19:56:09.678Z,3.20
2023-04-15T19:58:37.810Z,3.63
2023-04-15T20:01:05.038Z,3.33
2023-04-15T20:03:32.361Z,3.63
2023-04-15T20:05:59.907Z,3.17
2023-04-15T20:08:27.252Z,3.38
2023-04-15T20:10:54.915Z,3.35
2023-04-15T20:13:22.221Z,3.05
2023-04-15T20:15:49.739Z,3.03
2023-04-15T20:18:16.938Z,2.95
2023-04-15T20:20:44.142Z,3.35
2023-04-15T20:23:10.926Z,3.40
2023-04-15T20:25:37.831Z,3.45
2023-04-15T20:28:05.912Z,3.88
2023-04-15T20:30:33.317Z,4.18
2023-04-15T20:33:00.954Z,4.18
2023-04-15T20:35:31.156Z,3.63
2023-04-15T20:37:58.156Z,4.15
2023-04-15T20:40:26.031Z,3.65
2023-04-15T20:42:53.473Z,4.03
2023-04-15T20:45:21.211Z,3.80
2023-04-15T20:47:48.318Z,4.22
2023-04-15T20:50:15.886Z,4.18
2023-04-15T20:52:43.434Z,3.60
2023-04-15T20:55:10.678Z,4.00
2023-04-15T20:57:38.120Z,4.53
2023-04-15T21:00:05.854Z,4.07
2023-04-15T21:02:33.248Z,4.45
2023-04-15T21:05:00.568Z,3.78
2023-04-15T21:07:28.371Z,4.07
2023-04-15T21:09:56.255Z,5.30
2023-04-15T21:12:22.999Z,3.85
2023-04-15T21:14:50.803Z,4.93
2023-04-15T21:17:17.708Z,4.78
2023-04-15T21:19:44.950Z,4.15
2023-04-15T21:22:12.057Z,5.00
2023-04-15T21:24:39.635Z,4.40
2023-04-15T21:27:07.126Z,4.18
2023-04-15T21:29:34.459Z,4.82
2023-04-15T21:32:01.376Z,5.57
2023-04-15T21:34:29.082Z,5.15
2023-04-15T21:36:57.072Z,5.40
2023-04-15T21:39:24.192Z,5.13
2023-04-15T21:41:51.086Z,5.47
2023-04-15T21:44:18.366Z,4.65
2023-04-15T21:46:46.351Z,5.32
2023-04-15T21:49:13.961Z,5.70
2023-04-15T21:51:41.332Z,6.00
2023-04-15T21:54:08.871Z,5.97
2023-04-15T21:56:36.894Z,6.32
2023-04-15T21:59:04.263Z,5.70
2023-04-15T22:01:31.994Z,5.88
2023-04-15T22:03:59.735Z,5.93
2023-04-15T22:06:27.111Z,6.00
2023-04-15T22:08:57.367Z,6.70
2023-04-15T22:11:39.596Z,6.45
2023-04-15T22:14:06.856Z,5.75
2023-04-15T22:16:33.819Z,7.10
2023-04-15T22:19:02.649Z,7.03
2023-04-15T22:21:29.662Z,5.90
2023-04-15T22:24:38.793Z,5.82
2023-04-15T22:26:44.750Z,7.57
2023-04-15T22:29:11.970Z,6.65
2023-04-15T22:31:39.536Z,7.15
2023-04-15T22:34:06.723Z,6.97
2023-04-15T22:36:34.035Z,8.10
2023-04-15T22:39:01.132Z,7.82
2023-04-15T22:41:28.048Z,7.82
2023-04-15T22:43:55.270Z,8.05
2023-04-15T22:46:22.467Z,8.52
2023-04-15T22:48:50.070Z,8.07
2023-04-15T22:51:23.124Z,8.27
2023-04-15T22:53:51.159Z,8.18
2023-04-15T22:56:22.928Z,9.00
2023-04-15T22:58:50.428Z,8.57
2023-04-15T23:01:18.257Z,8.55
2023-04-15T23:03:59.138Z,8.15
2023-04-15T23:06:32.691Z,8.00
2023-04-15T23:08:59.621Z,8.85
2023-04-15T23:11:26.973Z,9.60
2023-04-15T23:13:54.561Z,9.20
2023-04-15T23:16:22.846Z,9.48
2023-04-15T23:18:50.075Z,9.32
2023-04-15T23:21:17.666Z,9.75
2023-04-15T23:23:45.015Z,8.55
2023-04-15T23:26:11.896Z,8.80
2023-04-15T23:28:39.203Z,9.63
2023-04-15T23:31:07.525Z,9.45
2023-04-15T23:33:34.613Z,9.77
2023-04-15T23:36:01.972Z,8.30
2023-04-15T23:38:29.302Z,8.75
2023-04-15T23:40:56.604Z,9.23
2023-04-15T23:43:23.323Z,10.35
2023-04-15T23:45:51.397Z,9.75
2023-04-15T23:48:18.713Z,10.15
2023-04-15T23:50:46.399Z,10.65
2023-04-15T23:53:13.794Z,10.20
2023-04-15T23:55:41.117Z,10.20
2023-04-15T23:58:09.512Z,11.00
